Time;durP1;ratioP1;P1;durP2;ratioP2;P2;SDS_P1;SDS_P2;PMS_P1;PMS_P2;Temp;Humidity;BMP_temperature;BMP_pressure;BME280_temperature;BME280_humidity;BME280_pressure;Samples;Min_cycle;Max_cycle;Signal;HPM_P1;HPM_P2
2023/06/30 00:00:21;;;;;;;0.10;0.10;;;;;;;23.23;52.55;101494.69;5081499;28;20031;-64
2023/06/30 00:02:47;;;;;;;0.00;0.00;;;;;;;23.30;52.23;101497.06;5080064;28;20123;-64
2023/06/30 00:05:13;;;;;;;0.10;0.10;;;;;;;23.14;53.32;101493.72;5069903;28;20043;-64
2023/06/30 00:07:39;;;;;;;0.10;0.10;;;;;;;22.90;53.80;101484.66;5069523;28;20033;-64
2023/06/30 00:10:06;;;;;;;0.10;0.10;;;;;;;22.81;54.00;101485.59;5072550;28;20096;-63
2023/06/30 00:12:32;;;;;;;0.10;0.10;;;;;;;22.91;53.29;101480.84;5090872;28;20111;-63
2023/06/30 00:14:57;;;;;;;0.10;0.10;;;;;;;23.21;52.11;101476.91;5090308;28;20124;-64
2023/06/30 00:17:22;;;;;;;0.10;0.10;;;;;;;23.37;51.63;101478.38;5090544;28;20077;-65
2023/06/30 00:19:50;;;;;;;0.10;0.10;;;;;;;23.54;51.38;101479.50;5090166;28;20042;-64
2023/06/30 00:22:22;;;;;;;0.10;0.10;;;;;;;23.03;52.23;101480.41;5071641;28;20056;-63
2023/06/30 00:24:53;;;;;;;0.13;0.13;;;;;;;23.66;50.75;101481.00;5089797;28;20028;-66
2023/06/30 00:27:18;;;;;;;0.10;0.10;;;;;;;23.65;50.65;101480.16;5090367;28;20036;-63
2023/06/30 00:29:44;;;;;;;0.10;0.10;;;;;;;23.40;51.02;101473.13;5089874;28;20039;-65
2023/06/30 00:32:09;;;;;;;0.10;0.10;;;;;;;23.29;51.26;101470.78;5071130;28;20507;-64
2023/06/30 00:34:35;;;;;;;0.10;0.10;;;;;;;23.55;50.50;101472.91;5089957;28;20040;-66
2023/06/30 00:37:00;;;;;;;0.10;0.10;;;;;;;23.14;52.11;101460.81;5089424;28;20038;-63
2023/06/30 00:39:25;;;;;;;0.10;0.10;;;;;;;23.39;50.80;101471.47;5090405;28;20039;-64
2023/06/30 00:41:51;;;;;;;0.10;0.10;;;;;;;23.39;51.07;101470.66;5090314;28;20139;-62
2023/06/30 00:44:16;;;;;;;0.10;0.10;;;;;;;23.42;51.05;101462.66;5082075;28;20562;-65
2023/06/30 00:46:42;;;;;;;0.00;0.00;;;;;;;23.50;50.82;101466.66;5069593;28;20064;-65
2023/06/30 00:49:07;;;;;;;0.10;0.10;;;;;;;23.55;50.36;101464.66;5069635;28;20392;-66
2023/06/30 00:51:32;;;;;;;0.10;0.10;;;;;;;23.46;50.20;101466.44;5051760;28;20159;-64
2023/06/30 00:53:59;;;;;;;0.10;0.10;;;;;;;23.71;50.08;101467.19;5089143;28;20024;-63
2023/06/30 00:56:24;;;;;;;0.20;0.20;;;;;;;23.73;49.33;101464.94;5089471;28;20062;-63
2023/06/30 00:58:49;;;;;;;0.10;0.10;;;;;;;23.74;49.41;101469.34;5090123;28;20375;-65
2023/06/30 01:01:28;;;;;;;0.10;0.10;;;;;;;23.27;50.67;101462.03;5069803;28;20033;-65
2023/06/30 01:04:35;;;;;;;0.10;0.10;;;;;;;23.78;49.61;101465.72;5049544;28;20045;-65
2023/06/30 01:07:34;;;;;;;0.10;0.10;;;;;;;23.78;49.29;101460.22;4968113;28;20041;-64
2023/06/30 01:10:12;;;;;;;0.10;0.10;;;;;;;23.53;50.26;101464.16;4967779;28;20027;-62
2023/06/30 01:12:38;;;;;;;0.10;0.10;;;;;;;23.34;50.25;101467.97;4968569;28;20055;-63
2023/06/30 01:15:06;;;;;;;0.10;0.10;;;;;;;23.43;50.39;101463.47;4968001;28;20143;-65
2023/06/30 01:17:33;;;;;;;0.10;0.10;;;;;;;23.51;50.04;101465.53;4951558;28;20039;-63
2023/06/30 01:20:00;;;;;;;0.10;0.10;;;;;;;23.45;49.90;101472.22;4967871;28;20043;-65
2023/06/30 01:22:31;;;;;;;0.10;0.10;;;;;;;23.37;49.81;101472.91;4967744;28;20059;-63
2023/06/30 01:25:01;;;;;;;0.10;0.10;;;;;;;23.45;49.83;101469.47;4967596;28;20625;-62
2023/06/30 01:27:28;;;;;;;0.20;0.20;;;;;;;23.06;50.47;101468.84;4968356;28;20047;-63
2023/06/30 01:29:53;;;;;;;0.10;0.10;;;;;;;23.13;50.85;101470.16;4967708;28;20038;-64
2023/06/30 01:32:21;;;;;;;0.10;0.10;;;;;;;23.30;49.96;101472.41;4967678;28;20683;-66
2023/06/30 01:34:46;;;;;;;0.10;0.10;;;;;;;23.33;49.63;101471.84;4968010;28;20042;-64
2023/06/30 01:37:14;;;;;;;0.10;0.10;;;;;;;23.33;49.47;101469.13;4968070;28;20050;-64
2023/06/30 01:39:42;;;;;;;0.10;0.10;;;;;;;23.15;50.27;101456.97;4968310;28;20084;-64
2023/06/30 01:42:08;;;;;;;0.10;0.10;;;;;;;23.07;50.15;101465.03;4967776;28;20039;-65
2023/06/30 01:44:35;;;;;;;0.10;0.10;;;;;;;23.39;49.65;101460.50;5018045;28;20045;-64
2023/06/30 01:47:02;;;;;;;0.10;0.10;;;;;;;22.86;51.17;101458.16;5059571;28;20041;-63
2023/06/30 01:49:28;;;;;;;0.10;0.10;;;;;;;22.83;51.29;101459.53;5072465;28;20050;-64
2023/06/30 01:51:53;;;;;;;0.10;0.10;;;;;;;23.04;50.63;101462.84;5072780;28;20039;-63
2023/06/30 01:54:19;;;;;;;0.10;0.10;;;;;;;23.04;50.41;101460.94;5073310;28;20032;-65
2023/06/30 01:56:48;;;;;;;0.13;0.13;;;;;;;22.72;51.28;101452.56;5072311;28;20090;-65
2023/06/30 01:59:14;;;;;;;0.10;0.10;;;;;;;22.66;50.90;101457.25;5072864;28;20062;-65
2023/06/30 02:01:39;;;;;;;0.10;0.10;;;;;;;22.86;50.66;101461.69;5072462;28;20055;-64
2023/06/30 02:04:05;;;;;;;0.10;0.10;;;;;;;22.91;50.16;101453.41;5072142;28;20037;-65
2023/06/30 02:06:30;;;;;;;0.20;0.20;;;;;;;22.88;50.42;101456.72;5073267;28;20027;-64
2023/06/30 02:08:56;;;;;;;0.10;0.10;;;;;;;22.72;50.34;101457.22;5072469;28;20082;-63
2023/06/30 02:11:21;;;;;;;0.10;0.10;;;;;;;22.49;51.20;101462.34;5071967;28;20314;-65
2023/06/30 02:13:46;;;;;;;0.10;0.10;;;;;;;22.74;50.42;101458.56;5071856;28;20415;-64
2023/06/30 02:16:12;;;;;;;0.10;0.10;;;;;;;22.57;50.97;101460.91;5071782;28;20044;-65
2023/06/30 02:18:39;;;;;;;0.10;0.10;;;;;;;22.68;50.29;101459.72;5072304;28;20492;-66
2023/06/30 02:21:05;;;;;;;0.10;0.10;;;;;;;22.52;50.85;101463.69;5071498;28;20041;-63
2023/06/30 02:23:30;;;;;;;0.20;0.20;;;;;;;22.31;51.72;101457.56;5071135;28;20307;-62
2023/06/30 02:25:56;;;;;;;0.10;0.10;;;;;;;22.53;50.81;101459.81;5071739;28;20504;-64
2023/06/30 02:28:21;;;;;;;0.10;0.10;;;;;;;22.28;51.24;101458.16;5071907;28;20290;-63
2023/06/30 02:30:46;;;;;;;0.10;0.10;;;;;;;22.35;51.26;101460.56;5071847;28;20024;-64
2023/06/30 02:33:12;;;;;;;0.10;0.10;;;;;;;22.39;51.07;101461.59;5072121;28;20074;-63
2023/06/30 02:35:37;;;;;;;0.10;0.10;;;;;;;22.17;51.44;101462.06;5071928;28;20032;-64
2023/06/30 02:38:03;;;;;;;0.17;0.17;;;;;;;22.39;51.23;101454.22;5071741;28;20412;-65
2023/06/30 02:40:29;;;;;;;0.10;0.10;;;;;;;22.27;51.18;101462.00;5072376;28;20488;-64
2023/06/30 02:42:55;;;;;;;0.20;0.20;;;;;;;22.19;51.66;101461.81;5072008;28;20474;-62
2023/06/30 02:45:20;;;;;;;0.10;0.10;;;;;;;22.43;50.56;101458.00;5081889;28;20051;-65
2023/06/30 02:47:46;;;;;;;0.10;0.10;;;;;;;21.71;52.62;101464.34;5091982;28;20420;-65
2023/06/30 02:50:11;;;;;;;0.10;0.10;;;;;;;21.99;52.33;101459.25;5091859;28;20063;-63
2023/06/30 02:52:37;;;;;;;0.20;0.20;;;;;;;22.18;51.78;101460.16;5081640;28;20117;-65
2023/06/30 02:55:02;;;;;;;0.10;0.10;;;;;;;22.24;51.35;101468.06;5071377;28;20028;-64
2023/06/30 02:57:28;;;;;;;0.20;0.20;;;;;;;22.46;50.94;101465.66;5072062;28;20021;-63
2023/06/30 02:59:53;;;;;;;0.20;0.20;;;;;;;22.35;50.92;101466.84;5070695;28;20527;-65
2023/06/30 03:02:19;;;;;;;0.10;0.10;;;;;;;22.52;50.31;101464.50;5070937;28;20093;-63
2023/06/30 03:04:44;;;;;;;0.20;0.20;;;;;;;22.58;50.56;101465.31;5071668;28;20040;-63
2023/06/30 03:07:09;;;;;;;0.10;0.10;;;;;;;22.62;50.26;101471.84;5071613;28;20029;-63
2023/06/30 03:09:35;;;;;;;0.20;0.20;;;;;;;22.49;50.60;101465.06;5071847;28;20290;-63
2023/06/30 03:12:00;;;;;;;0.20;0.20;;;;;;;22.74;50.15;101460.47;5070983;28;20040;-63
2023/06/30 03:14:25;;;;;;;0.10;0.10;;;;;;;22.73;50.76;101467.88;5071173;28;20055;-63
2023/06/30 03:16:51;;;;;;;0.10;0.10;;;;;;;22.78;50.22;101464.28;5071055;28;20082;-63
2023/06/30 03:19:16;;;;;;;0.10;0.10;;;;;;;22.74;50.29;101461.31;5071282;28;20036;-65
2023/06/30 03:21:41;;;;;;;0.10;0.10;;;;;;;22.64;50.45;101467.69;5071879;28;20028;-65
2023/06/30 03:24:07;;;;;;;0.10;0.10;;;;;;;22.63;49.90;101460.59;5071286;28;20033;-63
2023/06/30 03:26:32;;;;;;;0.10;0.10;;;;;;;22.64;50.19;101464.94;5090925;28;20036;-64
2023/06/30 03:29:00;;;;;;;0.10;0.10;;;;;;;22.75;50.03;101464.84;5091281;28;20036;-65
2023/06/30 03:31:25;;;;;;;0.10;0.10;;;;;;;22.82;49.85;101462.59;5090694;28;20059;-62
2023/06/30 03:33:50;;;;;;;0.10;0.10;;;;;;;22.85;49.60;101462.81;5090868;28;20016;-64
2023/06/30 03:36:16;;;;;;;0.20;0.20;;;;;;;22.60;49.60;101463.88;5076079;28;20032;-64
2023/06/30 03:38:41;;;;;;;0.10;0.10;;;;;;;22.60;49.79;101468.56;5070509;28;20059;-63
2023/06/30 03:41:06;;;;;;;0.10;0.10;;;;;;;22.42;50.94;101477.47;5058514;28;20044;-63
2023/06/30 03:43:33;;;;;;;0.20;0.20;;;;;;;22.37;50.57;101466.56;5088779;28;20040;-64
2023/06/30 03:45:58;;;;;;;0.10;0.10;;;;;;;22.47;50.36;101467.28;5070432;28;20034;-64
2023/06/30 03:48:24;;;;;;;0.10;0.10;;;;;;;22.43;50.28;101470.88;5071355;28;20024;-64
2023/06/30 03:50:52;;;;;;;0.20;0.20;;;;;;;22.53;49.69;101470.78;5070456;28;20047;-66
2023/06/30 03:53:17;;;;;;;0.20;0.20;;;;;;;22.66;49.94;101473.69;5052469;28;20028;-65
2023/06/30 03:55:43;;;;;;;0.10;0.10;;;;;;;22.76;49.28;101475.50;5070422;28;20040;-65
2023/06/30 03:58:08;;;;;;;0.10;0.10;;;;;;;22.69;49.37;101472.31;5070428;28;20032;-62
2023/06/30 04:00:34;;;;;;;0.10;0.10;;;;;;;22.87;48.77;101476.22;5070819;28;20032;-65
2023/06/30 04:02:59;;;;;;;0.10;0.10;;;;;;;22.42;50.57;101480.22;5055536;28;20174;-63
2023/06/30 04:05:25;;;;;;;0.10;0.10;;;;;;;22.74;48.88;101477.75;5053618;28;20185;-63
2023/06/30 04:07:50;;;;;;;0.20;0.20;;;;;;;22.77;49.35;101477.16;5058927;28;20028;-63
2023/06/30 04:10:16;;;;;;;0.10;0.10;;;;;;;22.63;49.88;101468.81;5065339;28;20040;-62
2023/06/30 04:12:42;;;;;;;0.10;0.10;;;;;;;22.53;49.84;101470.78;5070124;28;20051;-63
2023/06/30 04:15:10;;;;;;;0.10;0.10;;;;;;;22.50;50.17;101461.25;5069220;28;20036;-63
2023/06/30 04:17:36;;;;;;;0.10;0.10;;;;;;;22.64;49.40;101459.47;5069401;28;20032;-64
2023/06/30 04:20:03;;;;;;;0.10;0.10;;;;;;;22.43;49.56;101471.72;5069682;28;20389;-64
2023/06/30 04:22:28;;;;;;;0.10;0.10;;;;;;;22.61;49.31;101465.53;5069274;28;20053;-63
2023/06/30 04:24:54;;;;;;;0.13;0.13;;;;;;;22.81;48.67;101463.69;5069571;28;20555;-65
2023/06/30 04:27:19;;;;;;;0.10;0.10;;;;;;;22.89;47.96;101461.13;5070310;28;20420;-65
2023/06/30 04:29:45;;;;;;;0.10;0.10;;;;;;;22.97;48.42;101467.88;5069342;28;20494;-64
2023/06/30 04:32:10;;;;;;;0.10;0.10;;;;;;;22.48;49.26;101462.63;5069250;28;20032;-63
2023/06/30 04:34:35;;;;;;;0.10;0.10;;;;;;;22.35;50.19;101460.56;5069300;28;20052;-64
2023/06/30 04:37:01;;;;;;;0.10;0.10;;;;;;;22.25;49.97;101457.94;5072909;28;20012;-65
2023/06/30 04:39:26;;;;;;;0.10;0.10;;;;;;;22.46;49.67;101449.22;5082472;28;20021;-64
2023/06/30 04:41:52;;;;;;;0.10;0.10;;;;;;;22.72;49.49;101452.56;5068674;28;20036;-63
2023/06/30 04:44:18;;;;;;;0.10;0.10;;;;;;;22.69;49.68;101455.88;5055784;28;20489;-64
2023/06/30 04:46:43;;;;;;;0.05;0.05;;;;;;;23.09;48.54;101452.66;5056684;28;20029;-62
2023/06/30 04:49:09;;;;;;;0.20;0.20;;;;;;;22.99;49.40;101458.25;5068668;28;20113;-66
2023/06/30 04:51:35;;;;;;;0.10;0.10;;;;;;;22.51;49.93;101462.03;5069431;28;20028;-64
2023/06/30 04:54:01;;;;;;;0.20;0.20;;;;;;;22.88;49.65;101466.91;5068838;28;20480;-64
2023/06/30 04:56:27;;;;;;;0.20;0.20;;;;;;;23.18;48.67;101461.03;5068812;28;20039;-64
2023/06/30 04:58:52;;;;;;;0.10;0.10;;;;;;;22.51;50.14;101457.38;5068921;28;20039;-62
2023/06/30 05:01:18;;;;;;;0.10;0.10;;;;;;;22.07;51.12;101464.94;5068507;28;20035;-65
2023/06/30 05:03:43;;;;;;;0.10;0.10;;;;;;;21.92;51.89;101465.03;5068985;28;20129;-65
2023/06/30 05:06:08;;;;;;;0.10;0.10;;;;;;;22.86;49.90;101469.13;5068666;28;20025;-61
2023/06/30 05:08:34;;;;;;;0.10;0.10;;;;;;;22.76;49.57;101461.81;5068911;28;20032;-63
2023/06/30 05:11:00;;;;;;;0.10;0.10;;;;;;;22.98;49.27;101469.50;5059639;28;20422;-63
2023/06/30 05:13:26;;;;;;;0.10;0.10;;;;;;;22.83;49.43;101464.19;5048253;28;20029;-65
2023/06/30 05:15:52;;;;;;;0.10;0.10;;;;;;;22.58;49.89;101460.63;5049103;28;20012;-63
2023/06/30 05:18:17;;;;;;;0.10;0.10;;;;;;;22.62;49.86;101469.09;5050367;28;20035;-65
2023/06/30 05:20:42;;;;;;;0.10;0.10;;;;;;;22.72;50.15;101463.50;5050946;28;20406;-65
2023/06/30 05:23:08;;;;;;;0.10;0.10;;;;;;;22.98;49.24;101466.75;5070466;28;20048;-65
2023/06/30 05:25:34;;;;;;;0.10;0.10;;;;;;;22.42;51.44;101466.53;5076577;28;20043;-63
2023/06/30 05:27:59;;;;;;;0.10;0.10;;;;;;;22.35;50.76;101471.50;5075760;28;20063;-66
2023/06/30 05:30:24;;;;;;;0.10;0.10;;;;;;;22.27;51.12;101461.19;5073142;28;20024;-64
2023/06/30 05:32:50;;;;;;;0.10;0.10;;;;;;;22.75;50.72;101459.34;5071445;28;20113;-64
2023/06/30 05:35:15;;;;;;;0.00;0.00;;;;;;;22.87;49.66;101457.03;5074533;28;20055;-63
2023/06/30 05:37:40;;;;;;;0.10;0.10;;;;;;;22.79;49.96;101461.22;5072396;28;20036;-63
2023/06/30 05:40:06;;;;;;;0.10;0.10;;;;;;;22.91;49.81;101464.38;5072719;28;20044;-64
2023/06/30 05:42:31;;;;;;;0.10;0.10;;;;;;;23.45;48.91;101472.22;5072474;28;20016;-65
2023/06/30 05:44:57;;;;;;;0.10;0.10;;;;;;;22.36;51.39;101467.69;5072628;28;20043;-63
2023/06/30 05:47:22;;;;;;;0.10;0.10;;;;;;;22.85;50.87;101468.28;5072969;28;20028;-63
2023/06/30 05:49:47;;;;;;;0.10;0.10;;;;;;;23.35;49.65;101464.16;5072214;28;20404;-65
2023/06/30 05:52:13;;;;;;;0.10;0.10;;;;;;;23.46;49.10;101468.38;5072879;28;20024;-62
2023/06/30 05:54:38;;;;;;;0.10;0.10;;;;;;;23.17;49.50;101464.91;5073336;28;20027;-62
2023/06/30 05:57:04;;;;;;;0.10;0.10;;;;;;;22.76;50.50;101466.47;5072412;28;20059;-63
2023/06/30 05:59:30;;;;;;;0.00;0.00;;;;;;;23.69;49.02;101464.72;5072158;28;20072;-63
2023/06/30 06:01:56;;;;;;;0.10;0.10;;;;;;;23.32;49.87;101465.53;5072444;28;20036;-64
2023/06/30 06:04:21;;;;;;;0.10;0.10;;;;;;;23.90;48.73;101466.06;5072510;28;20043;-65
2023/06/30 06:06:47;;;;;;;0.10;0.10;;;;;;;23.62;49.43;101475.28;5072477;28;20496;-64
2023/06/30 06:09:13;;;;;;;0.10;0.10;;;;;;;23.87;48.85;101463.09;5073468;28;20017;-63
2023/06/30 06:11:39;;;;;;;0.10;0.10;;;;;;;23.91;48.32;101469.63;5072453;28;20066;-63
2023/06/30 06:14:04;;;;;;;0.10;0.10;;;;;;;23.95;48.55;101473.41;5092908;28;20036;-63
2023/06/30 06:16:30;;;;;;;0.10;0.10;;;;;;;23.26;49.46;101482.31;5080350;28;20504;-65
2023/06/30 06:18:55;;;;;;;0.10;0.10;;;;;;;23.42;49.13;101481.03;5073363;28;20031;-62
2023/06/30 06:21:26;;;;;;;0.00;0.00;;;;;;;23.03;50.31;101481.25;5073620;28;20032;-63
2023/06/30 06:23:51;;;;;;;0.10;0.10;;;;;;;22.97;51.54;101485.16;5071911;28;20525;-65
2023/06/30 06:26:16;;;;;;;0.10;0.10;;;;;;;23.43;49.86;101477.19;5071692;28;20040;-63
2023/06/30 06:28:42;;;;;;;0.10;0.10;;;;;;;23.06;50.19;101479.81;5072229;28;20374;-62
2023/06/30 06:31:07;;;;;;;0.10;0.10;;;;;;;23.76;49.38;101492.66;5088687;28;20511;-64
2023/06/30 06:33:33;;;;;;;0.10;0.10;;;;;;;23.84;49.40;101486.47;5086644;28;20024;-63
2023/06/30 06:35:58;;;;;;;0.10;0.10;;;;;;;24.12;48.89;101488.25;5068489;28;20037;-64
2023/06/30 06:38:24;;;;;;;0.00;0.00;;;;;;;24.43;48.63;101486.59;5071789;28;20572;-64
2023/06/30 06:40:49;;;;;;;0.10;0.10;;;;;;;24.43;48.65;101488.56;5071787;28;20110;-63
2023/06/30 06:43:15;;;;;;;0.10;0.10;;;;;;;24.26;49.00;101489.13;5053355;28;20040;-63
2023/06/30 06:45:43;;;;;;;0.10;0.10;;;;;;;23.71;49.70;101478.16;5072012;28;20032;-66
2023/06/30 06:48:35;;;;;;;0.10;0.10;;;;;;;24.99;47.20;101480.91;5071062;28;20068;-63
2023/06/30 06:51:02;;;;;;;0.03;0.03;;;;;;;24.11;49.57;101485.81;5068752;28;20101;-62
2023/06/30 06:53:35;;;;;;;0.10;0.10;;;;;;;24.87;47.54;101475.09;5070715;28;20043;-64
2023/06/30 06:56:01;;;;;;;0.10;0.10;;;;;;;24.06;49.12;101477.63;5071199;28;20047;-63
2023/06/30 06:58:32;;;;;;;0.10;0.10;;;;;;;23.79;49.81;101482.97;5071461;28;20124;-63
2023/06/30 07:00:58;;;;;;;;;;;;;;;24.66;47.66;101487.59;5071826;28;20059;-64
2023/06/30 07:03:23;;;;;;;0.10;0.10;;;;;;;24.06;48.93;101483.94;5071461;28;19924;-63
2023/06/30 07:05:49;;;;;;;0.08;0.08;;;;;;;24.03;49.04;101481.00;5064923;28;20032;-63
2023/06/30 07:08:19;;;;;;;0.00;0.00;;;;;;;24.00;49.30;101479.63;5051275;28;20033;-63
2023/06/30 07:10:46;;;;;;;0.10;0.10;;;;;;;24.76;47.08;101478.34;5059187;28;20036;-64
2023/06/30 07:13:12;;;;;;;0.10;0.10;;;;;;;23.82;49.16;101476.91;5069382;28;20052;-64
2023/06/30 07:15:37;;;;;;;0.03;0.03;;;;;;;24.43;46.96;101480.31;5085721;28;20097;-64
2023/06/30 07:18:03;;;;;;;0.00;0.00;;;;;;;24.59;47.07;101480.84;5070853;28;20439;-64
2023/06/30 07:20:28;;;;;;;0.00;0.00;;;;;;;24.10;47.40;101475.91;5070759;28;20421;-63
2023/06/30 07:22:56;;;;;;;0.00;0.00;;;;;;;24.19;46.89;101477.72;5051636;28;20051;-64
2023/06/30 07:25:22;;;;;;;0.00;0.00;;;;;;;24.11;45.58;101483.06;5050445;28;20404;-63
2023/06/30 07:27:54;;;;;;;0.00;0.00;;;;;;;23.57;44.85;101477.28;5050504;28;20079;-64
2023/06/30 07:30:21;;;;;;;0.00;0.00;;;;;;;23.47;42.62;101484.53;5051022;28;20451;-63
2023/06/30 07:32:47;;;;;;;0.10;0.10;;;;;;;23.97;41.84;101485.72;5051622;28;20040;-65
2023/06/30 07:35:13;;;;;;;0.00;0.00;;;;;;;24.14;42.23;101496.19;5070718;28;20152;-64
2023/06/30 07:37:39;;;;;;;0.10;0.10;;;;;;;23.76;42.52;101480.84;5070549;28;20569;-65
2023/06/30 07:40:06;;;;;;;0.00;0.00;;;;;;;23.97;41.71;101474.75;5070452;28;20045;-66
2023/06/30 07:42:31;;;;;;;0.00;0.00;;;;;;;23.99;42.68;101478.00;5086009;28;20024;-65
2023/06/30 07:44:57;;;;;;;0.10;0.10;;;;;;;24.93;41.91;101471.13;5070094;28;20446;-64
2023/06/30 07:47:22;;;;;;;0.00;0.00;;;;;;;24.94;42.85;101472.75;5070132;28;20146;-64
2023/06/30 07:49:48;;;;;;;0.00;0.00;;;;;;;24.66;40.93;101489.50;5069637;28;20036;-65
2023/06/30 07:52:13;;;;;;;0.00;0.00;;;;;;;23.52;42.52;101467.19;5070238;28;20033;-63
2023/06/30 07:54:38;;;;;;;0.00;0.00;;;;;;;24.02;40.14;101462.88;5070423;28;20070;-63
2023/06/30 07:57:04;;;;;;;0.10;0.10;;;;;;;23.79;40.25;101463.75;5069870;28;20523;-64
2023/06/30 07:59:29;;;;;;;0.00;0.00;;;;;;;24.33;39.78;101466.75;5069908;28;20119;-62
2023/06/30 08:01:55;;;;;;;0.05;0.05;;;;;;;23.84;40.80;101466.44;5069910;28;20028;-65
2023/06/30 08:04:21;;;;;;;0.10;0.10;;;;;;;24.60;40.11;101466.81;5069493;28;20566;-68
2023/06/30 08:06:47;;;;;;;0.10;0.10;;;;;;;24.38;40.58;101461.97;5070174;28;20044;-68
2023/06/30 08:09:13;;;;;;;0.00;0.00;;;;;;;24.07;42.39;101466.38;5070730;28;20384;-66
2023/06/30 08:11:38;;;;;;;0.00;0.00;;;;;;;24.69;40.42;101472.41;5069292;28;20397;-70
2023/06/30 08:14:04;;;;;;;0.00;0.00;;;;;;;24.18;41.89;101475.25;5067742;28;20085;-65
2023/06/30 08:16:30;;;;;;;0.00;0.00;;;;;;;24.99;40.91;101466.34;5072393;28;20040;-67
2023/06/30 08:18:55;;;;;;;0.00;0.00;;;;;;;25.59;38.64;101465.06;5070153;28;20130;-69
2023/06/30 08:21:21;;;;;;;0.00;0.00;;;;;;;25.36;39.44;101477.09;5070672;28;20046;-70
2023/06/30 08:23:46;;;;;;;0.00;0.00;;;;;;;25.70;39.02;101473.91;5086792;28;20056;-68
2023/06/30 08:26:12;;;;;;;0.00;0.00;;;;;;;25.33;38.04;101471.41;5089825;28;20546;-67
2023/06/30 08:28:38;;;;;;;0.00;0.00;;;;;;;24.82;39.25;101472.47;5089043;28;20039;-67
2023/06/30 08:31:03;;;;;;;0.00;0.00;;;;;;;25.60;38.15;101477.72;5071237;28;20023;-66
2023/06/30 08:33:29;;;;;;;0.00;0.00;;;;;;;26.29;37.49;101470.81;5070070;28;20473;-67
2023/06/30 08:35:55;;;;;;;0.00;0.00;;;;;;;25.56;37.82;101468.44;5074244;28;20025;-67
2023/06/30 08:38:20;;;;;;;0.00;0.00;;;;;;;25.06;37.87;101475.03;5089264;28;20034;-67
2023/06/30 08:40:46;;;;;;;0.00;0.00;;;;;;;25.15;37.24;101470.41;5089322;28;20036;-70
2023/06/30 08:43:11;;;;;;;0.00;0.00;;;;;;;25.99;35.17;101466.03;5089170;28;20043;-67
2023/06/30 08:45:47;;;;;;;0.00;0.00;;;;;;;25.43;35.74;101466.53;5089880;28;20498;-66
2023/06/30 08:48:13;;;;;;;0.00;0.00;;;;;;;25.20;37.13;101462.88;5058599;28;20129;-65
2023/06/30 08:50:38;;;;;;;0.00;0.00;;;;;;;26.39;35.12;101461.47;5048346;28;20480;-67
2023/06/30 08:53:04;;;;;;;0.00;0.00;;;;;;;25.86;36.48;101476.00;5048851;28;20121;-65
2023/06/30 08:55:29;;;;;;;0.00;0.00;;;;;;;24.49;38.59;101472.78;5048752;28;20029;-65
2023/06/30 08:57:56;;;;;;;0.00;0.00;;;;;;;25.96;35.95;101470.22;5047521;28;20067;-63
2023/06/30 09:00:22;;;;;;;0.00;0.00;;;;;;;26.66;35.14;101466.81;5048815;28;20025;-65
2023/06/30 09:02:49;;;;;;;0.00;0.00;;;;;;;27.13;34.78;101451.41;5048524;28;20041;-63
2023/06/30 09:05:14;;;;;;;0.00;0.00;;;;;;;26.69;35.39;101460.66;5048462;28;20057;-64
2023/06/30 09:07:46;;;;;;;0.00;0.00;;;;;;;27.23;33.44;101446.41;5048944;28;20496;-63
2023/06/30 09:10:13;;;;;;;0.00;0.00;;;;;;;26.36;33.99;101454.66;5051493;28;20029;-64
2023/06/30 09:12:46;;;;;;;0.00;0.00;;;;;;;27.44;33.21;101447.44;5069045;28;20071;-65
2023/06/30 09:15:14;;;;;;;0.00;0.00;;;;;;;26.69;34.26;101455.94;5067149;28;20496;-65
2023/06/30 09:17:40;;;;;;;0.00;0.00;;;;;;;26.64;34.52;101450.59;5048448;28;20032;-64
2023/06/30 09:20:06;;;;;;;0.00;0.00;;;;;;;26.93;33.38;101452.81;5029782;28;20485;-66
2023/06/30 09:22:32;;;;;;;0.00;0.00;;;;;;;27.35;32.76;101440.28;5054586;28;20527;-66
2023/06/30 09:24:59;;;;;;;0.00;0.00;;;;;;;27.24;32.85;101444.47;5068732;28;20066;-64
2023/06/30 09:27:27;;;;;;;0.00;0.00;;;;;;;27.63;32.52;101436.09;5068901;28;20036;-65
2023/06/30 09:29:54;;;;;;;0.00;0.00;;;;;;;27.47;32.35;101424.72;5068036;28;20035;-64
2023/06/30 09:32:29;;;;;;;0.00;0.00;;;;;;;27.43;32.79;101428.44;5068656;28;20067;-62
2023/06/30 09:34:54;;;;;;;0.00;0.00;;;;;;;27.86;31.87;101436.72;5068068;28;20033;-63
2023/06/30 09:37:20;;;;;;;0.00;0.00;;;;;;;26.99;31.81;101434.19;5068616;28;20051;-65
2023/06/30 09:39:50;;;;;;;0.00;0.00;;;;;;;26.99;32.56;101434.19;5068359;28;20038;-65
2023/06/30 09:42:16;;;;;;;0.00;0.00;;;;;;;28.67;29.12;101426.50;5069068;28;20068;-66
2023/06/30 09:44:41;;;;;;;0.00;0.00;;;;;;;27.59;32.25;101435.94;5068305;28;20036;-65
2023/06/30 09:47:07;;;;;;;0.00;0.00;;;;;;;27.56;30.59;101421.94;5068803;28;20036;-64
2023/06/30 09:49:32;;;;;;;0.00;0.00;;;;;;;27.95;30.84;101430.09;5068770;28;20047;-65
2023/06/30 09:52:01;;;;;;;0.00;0.00;;;;;;;28.02;30.85;101433.19;5068592;28;20033;-65
2023/06/30 09:54:27;;;;;;;0.00;0.00;;;;;;;27.49;30.58;101418.88;5069026;28;20078;-64
2023/06/30 09:57:05;;;;;;;0.00;0.00;;;;;;;28.45;30.58;101417.28;5068338;28;20131;-67
2023/06/30 09:59:32;;;;;;;0.00;0.00;;;;;;;28.42;29.94;101419.91;5068453;28;20032;-64
2023/06/30 10:01:58;;;;;;;0.00;0.00;;;;;;;27.73;31.61;101422.75;5067467;28;20081;-65
2023/06/30 10:04:25;;;;;;;0.00;0.00;;;;;;;28.81;30.15;101421.56;5067341;28;20049;-64
2023/06/30 10:06:51;;;;;;;0.00;0.00;;;;;;;29.48;28.09;101414.00;5067072;28;20025;-64
2023/06/30 10:09:24;;;;;;;0.00;0.00;;;;;;;27.91;30.95;101420.78;5069450;28;20028;-67
2023/06/30 10:11:52;;;;;;;0.00;0.00;;;;;;;28.59;30.62;101414.34;5070077;28;20055;-68
2023/06/30 10:14:30;;;;;;;0.00;0.00;;;;;;;27.47;30.60;101415.63;5069756;28;20037;-66
2023/06/30 10:16:57;;;;;;;0.00;0.00;;;;;;;27.75;30.90;101408.66;5070864;28;20031;-64
2023/06/30 10:19:23;;;;;;;0.00;0.00;;;;;;;28.42;30.03;101398.59;5070730;28;20039;-67
2023/06/30 10:21:49;;;;;;;0.00;0.00;;;;;;;29.22;30.11;101410.59;5070843;28;20475;-65
2023/06/30 10:24:17;;;;;;;0.00;0.00;;;;;;;28.54;30.74;101414.47;5053067;28;20033;-65
2023/06/30 10:26:42;;;;;;;0.00;0.00;;;;;;;28.38;30.74;101405.91;5066127;28;20033;-65
2023/06/30 10:29:09;;;;;;;0.00;0.00;;;;;;;29.89;28.71;101402.06;5068770;28;20090;-64
2023/06/30 10:31:35;;;;;;;0.00;0.00;;;;;;;29.52;30.06;101409.41;5070267;28;20028;-67
2023/06/30 10:34:01;;;;;;;0.00;0.00;;;;;;;28.97;30.37;101398.50;5070174;28;20107;-63
2023/06/30 10:36:27;;;;;;;0.00;0.00;;;;;;;28.60;31.70;101404.88;5052908;28;20547;-64
2023/06/30 10:38:54;;;;;;;0.00;0.00;;;;;;;27.92;31.42;101400.31;5070241;28;20396;-66
2023/06/30 10:41:22;;;;;;;0.00;0.00;;;;;;;28.72;30.41;101401.44;5069945;28;20467;-66
2023/06/30 10:44:09;;;;;;;0.00;0.00;;;;;;;29.84;29.97;101408.63;5070358;28;20522;-66
2023/06/30 10:46:47;;;;;;;0.00;0.00;;;;;;;29.87;29.34;101402.44;5089945;28;20050;-65
2023/06/30 10:49:17;;;;;;;0.00;0.00;;;;;;;29.55;29.11;101400.41;5075703;28;20580;-65
2023/06/30 10:51:47;;;;;;;;;;;;;;;30.38;28.72;101403.84;5068537;28;20036;-66
2023/06/30 10:54:48;;;;;;;0.00;0.00;;;;;;;29.42;29.02;101405.06;5069556;28;19912;-67
2023/06/30 10:57:18;;;;;;;0.00;0.00;;;;;;;28.69;29.50;101389.06;4951861;28;20046;-65
2023/06/30 10:59:45;;;;;;;;;;;;;;;28.92;29.21;101395.94;4959139;28;20031;-66
2023/06/30 11:02:19;;;;;;;0.00;0.00;;;;;;;29.01;29.31;101393.91;4959771;28;19914;-64
2023/06/30 11:04:46;;;;;;;0.00;0.00;;;;;;;28.50;30.69;101394.19;4961525;28;20211;-65
2023/06/30 11:07:28;;;;;;;0.00;0.00;;;;;;;27.95;30.67;101391.41;4958116;28;20122;-66
2023/06/30 11:09:53;;;;;;;0.00;0.00;;;;;;;28.07;30.60;101391.53;4960471;28;20415;-65
2023/06/30 11:12:27;;;;;;;0.00;0.00;;;;;;;28.63;29.35;101391.22;4962547;28;20031;-65
2023/06/30 11:15:00;;;;;;;0.00;0.00;;;;;;;28.08;30.49;101384.06;4963104;28;20066;-64
2023/06/30 11:17:27;;;;;;;0.00;0.00;;;;;;;29.09;30.18;101378.44;4958618;28;20606;-63
2023/06/30 11:20:11;;;;;;;0.00;0.00;;;;;;;28.71;30.02;101380.44;4962753;28;20038;-64
2023/06/30 11:22:38;;;;;;;0.00;0.00;;;;;;;28.19;30.11;101380.63;4960930;28;20143;-62
2023/06/30 11:25:05;;;;;;;0.00;0.00;;;;;;;27.47;30.46;101377.78;4932960;28;20460;-64